Tropical Cyclones
[Index]
Main Index Home Page Stock Weather Photos Extreme Storms Discussion Storm News and Storm Chasing Reports Tropical Cyclones / Hurricanes / Typhoons Weather Data and Links Wild Fires / Bushfires Weather Observation Techniques Weather Picture Catalogue Tornado Pictures and Reports Stock Video Footage and DVDs for sale
Season 1962-1963 Tropical Cyclone DELIA Track Map
Season 1962-1963 Summaries: [BoM-AU] [JTWC-AU] [JTWC-SIO] [JTWC-SPAC] [JTWC-SH]
<<- Previous TC | JTWC 1962-1963 Season | Next TC ->>

click for intensity scale information  Lat/long Grid: Show Hide

 Date Labels: Show Hide

Joint Typhoon Warning Centre Cyclone Data

Name: DELIA
Number: 461 / 6314

09 Jan 1963 00:00 UTC to 17 Jan 1963 00:00 UTC

    date/time    lat    long     hPa   cat  kts
1963-01-09 00   10.0    83.0                  15          
1963-01-09 06   10.2    81.9                  25          
1963-01-09 12   10.5    81.0                  30          
1963-01-09 18   10.7    80.2                  25          
1963-01-10 00   11.0    79.4                  20          
1963-01-10 06   11.2    78.5                  20          
1963-01-10 12   11.5    77.5                  20          
1963-01-10 18   11.7    76.5                  15          
1963-01-11 00   12.0    75.4                  10          
1963-01-11 06   12.2    74.5                  10          
1963-01-11 12   12.5    73.5                  10          
1963-01-11 18   12.7    72.3                  35          
1963-01-12 00   12.8    71.0            2     60          
1963-01-12 06   12.9    69.8            2     70          
1963-01-12 12   13.0    68.5            2     65          
1963-01-12 18   13.0    67.4            1     45          
1963-01-13 00   13.1    66.3                  25          
1963-01-13 06   13.3    65.1                  25          
1963-01-13 12   13.5    64.0                  25          
1963-01-13 18   13.7    63.2                  30          
1963-01-14 00   13.9    62.5                  35          
1963-01-14 06   14.1    61.5            1     50          
1963-01-14 12   14.5    60.5            2     65          
1963-01-14 18   15.1    59.3            2     55          
1963-01-15 00   15.7    58.2            1     45          
1963-01-15 06   16.3    57.1            1     40          
1963-01-15 12   17.0    56.0                  35          
1963-01-15 18   17.7    54.9            1     45          
1963-01-16 00   18.4    53.8            2     60          
1963-01-16 06   19.4    52.4            2     70          
1963-01-16 12   20.5    51.0            2     70          
1963-01-16 18   21.3    50.0            2     55          
1963-01-17 00   21.8    49.3                  15          
Winds are 1-min average.

Tropical cyclone tracks developed by Michael Bath using data from the Joint Typhoon Warning Centre Best Tracks and Google Maps.


[Australian Severe Weather index] [Copyright Notice] [Email Contacts] [Search This Site] [Privacy Policy]
Document: tropical_cyclone_delia.htm Updated: 18 September 2016